Latest Aviation Weather Report (METAR)

METAR VMMC 250030Z 01011KT 9999 FEW020 SCT035 23/19 Q1013 NOSIG=

Decoded METAR in plain language
Contents of Report Code Information
Report Type METAR Aviation Routine Weather Report
Location VMMC Macao, China
Time of the Observation 250030Z 25/04/2018 00:30:00 UTC
Surface Wind Direction and Speed 01011KT mean direction 010 degrees, speed 11 knots
Visibility 9999 10 kilometres or more
Present Weather    
Cloud FEW020 SCT035 amount 1-2 oktas; base 2000 feet
amount 3-4 oktas; base 3500 feet
Air Temperature and Dew-Point Temperature 23/19 air temperature 23°C
dew point temperature 19°C
Pressure (QNH) Q1013 1013 hPa
Trend Forecasts During Next Two Hours NOSIG no significant changes

OTHER INTERNATIONAL AIRPORTS:
Weather Forecast (TAF)   Weather Report (METAR)